sensor_id;sensor_type;location;lat;lon;timestamp;temperature;humidity
11963;DHT22;62678;52.130;5.584;2023-06-24T00:00:51;19.10;99.90
11963;DHT22;62678;52.130;5.584;2023-06-24T00:03:18;19.20;99.90
11963;DHT22;62678;52.130;5.584;2023-06-24T00:05:45;19.10;99.90
11963;DHT22;62678;52.130;5.584;2023-06-24T00:08:16;19.10;99.90
11963;DHT22;62678;52.130;5.584;2023-06-24T00:10:45;19.10;99.90
11963;DHT22;62678;52.130;5.584;2023-06-24T00:13:13;19.10;99.90
11963;DHT22;62678;52.130;5.584;2023-06-24T00:15:40;19.10;99.90
11963;DHT22;62678;52.130;5.584;2023-06-24T00:18:08;19.10;99.90
11963;DHT22;62678;52.130;5.584;2023-06-24T00:20:35;19.10;99.90
11963;DHT22;62678;52.130;5.584;2023-06-24T00:23:02;19.20;99.90
11963;DHT22;62678;52.130;5.584;2023-06-24T00:25:31;19.20;99.90
11963;DHT22;62678;52.130;5.584;2023-06-24T00:27:58;19.20;99.90
11963;DHT22;62678;52.130;5.584;2023-06-24T00:30:26;19.10;99.90
11963;DHT22;62678;52.130;5.584;2023-06-24T00:32:53;19.10;99.90
11963;DHT22;62678;52.130;5.584;2023-06-24T00:35:20;19.00;99.90
11963;DHT22;62678;52.130;5.584;2023-06-24T00:37:47;19.00;99.90
11963;DHT22;62678;52.130;5.584;2023-06-24T00:40:15;18.90;99.90
11963;DHT22;62678;52.130;5.584;2023-06-24T00:42:44;18.80;99.90
11963;DHT22;62678;52.130;5.584;2023-06-24T00:45:12;18.80;99.90
11963;DHT22;62678;52.130;5.584;2023-06-24T00:47:40;18.70;99.90
11963;DHT22;62678;52.130;5.584;2023-06-24T00:50:11;18.70;99.90
11963;DHT22;62678;52.130;5.584;2023-06-24T00:52:38;18.60;99.90
11963;DHT22;62678;52.130;5.584;2023-06-24T00:55:08;18.50;99.90
11963;DHT22;62678;52.130;5.584;2023-06-24T00:57:37;18.50;99.90
11963;DHT22;62678;52.130;5.584;2023-06-24T01:00:07;18.40;99.90
11963;DHT22;62678;52.130;5.584;2023-06-24T01:02:39;18.50;99.90
11963;DHT22;62678;52.130;5.584;2023-06-24T01:05:08;18.40;99.90
11963;DHT22;62678;52.130;5.584;2023-06-24T01:07:37;18.30;99.90
11963;DHT22;62678;52.130;5.584;2023-06-24T01:10:07;18.20;99.90
11963;DHT22;62678;52.130;5.584;2023-06-24T01:12:35;18.20;99.90
11963;DHT22;62678;52.130;5.584;2023-06-24T01:15:07;18.20;99.90
11963;DHT22;62678;52.130;5.584;2023-06-24T01:17:36;18.10;99.90
11963;DHT22;62678;52.130;5.584;2023-06-24T01:20:09;18.10;99.90
11963;DHT22;62678;52.130;5.584;2023-06-24T01:23:24;18.10;99.90
11963;DHT22;62678;52.130;5.584;2023-06-24T01:26:19;18.10;99.90
11963;DHT22;62678;52.130;5.584;2023-06-24T01:29:19;18.00;99.90
11963;DHT22;62678;52.130;5.584;2023-06-24T01:31:51;18.00;99.90
11963;DHT22;62678;52.130;5.584;2023-06-24T01:34:24;17.90;99.90
11963;DHT22;62678;52.130;5.584;2023-06-24T01:36:58;17.90;99.90
11963;DHT22;62678;52.130;5.584;2023-06-24T01:39:27;17.90;99.90
11963;DHT22;62678;52.130;5.584;2023-06-24T01:42:00;17.90;99.90
11963;DHT22;62678;52.130;5.584;2023-06-24T01:44:30;17.90;99.90
11963;DHT22;62678;52.130;5.584;2023-06-24T01:46:59;17.90;99.90
11963;DHT22;62678;52.130;5.584;2023-06-24T01:49:29;17.90;99.90
11963;DHT22;62678;52.130;5.584;2023-06-24T01:51:59;17.90;99.90
11963;DHT22;62678;52.130;5.584;2023-06-24T01:54:28;17.90;99.90
11963;DHT22;62678;52.130;5.584;2023-06-24T01:56:57;17.90;99.90
11963;DHT22;62678;52.130;5.584;2023-06-24T01:59:28;17.90;99.90
11963;DHT22;62678;52.130;5.584;2023-06-24T02:01:58;17.90;99.90
11963;DHT22;62678;52.130;5.584;2023-06-24T02:04:28;18.00;99.90
11963;DHT22;62678;52.130;5.584;2023-06-24T02:06:58;18.00;99.90
11963;DHT22;62678;52.130;5.584;2023-06-24T02:09:26;18.00;99.90
11963;DHT22;62678;52.130;5.584;2023-06-24T02:11:57;17.90;99.90
11963;DHT22;62678;52.130;5.584;2023-06-24T02:14:26;17.90;99.90
11963;DHT22;62678;52.130;5.584;2023-06-24T02:16:55;18.00;99.90
11963;DHT22;62678;52.130;5.584;2023-06-24T02:19:27;18.00;99.90
11963;DHT22;62678;52.130;5.584;2023-06-24T02:21:56;18.10;99.90
11963;DHT22;62678;52.130;5.584;2023-06-24T02:24:25;18.00;99.90
11963;DHT22;62678;52.130;5.584;2023-06-24T02:26:53;17.90;99.90
11963;DHT22;62678;52.130;5.584;2023-06-24T02:29:21;17.80;99.90
11963;DHT22;62678;52.130;5.584;2023-06-24T02:31:49;17.80;99.90
11963;DHT22;62678;52.130;5.584;2023-06-24T02:34:16;17.70;99.90
11963;DHT22;62678;52.130;5.584;2023-06-24T02:36:45;17.70;99.90
11963;DHT22;62678;52.130;5.584;2023-06-24T02:39:12;17.60;99.90
11963;DHT22;62678;52.130;5.584;2023-06-24T02:41:39;17.60;99.90
11963;DHT22;62678;52.130;5.584;2023-06-24T02:44:06;17.60;99.90
11963;DHT22;62678;52.130;5.584;2023-06-24T02:46:33;17.60;99.90
11963;DHT22;62678;52.130;5.584;2023-06-24T02:49:02;17.50;99.90
11963;DHT22;62678;52.130;5.584;2023-06-24T02:51:30;17.50;99.90
11963;DHT22;62678;52.130;5.584;2023-06-24T02:53:59;17.50;99.90
11963;DHT22;62678;52.130;5.584;2023-06-24T02:56:28;17.50;99.90
11963;DHT22;62678;52.130;5.584;2023-06-24T02:58:55;17.50;99.90
11963;DHT22;62678;52.130;5.584;2023-06-24T03:01:23;17.50;99.90
11963;DHT22;62678;52.130;5.584;2023-06-24T03:03:53;17.40;99.90
11963;DHT22;62678;52.130;5.584;2023-06-24T03:06:21;17.40;99.90
11963;DHT22;62678;52.130;5.584;2023-06-24T03:08:49;17.40;99.90
11963;DHT22;62678;52.130;5.584;2023-06-24T03:11:17;17.40;99.90
11963;DHT22;62678;52.130;5.584;2023-06-24T03:13:44;17.30;99.90
11963;DHT22;62678;52.130;5.584;2023-06-24T03:16:12;17.20;99.90
11963;DHT22;62678;52.130;5.584;2023-06-24T03:18:40;17.20;99.90
11963;DHT22;62678;52.130;5.584;2023-06-24T03:21:08;17.20;99.90
11963;DHT22;62678;52.130;5.584;2023-06-24T03:23:35;17.10;99.90
11963;DHT22;62678;52.130;5.584;2023-06-24T03:26:02;17.10;99.90
11963;DHT22;62678;52.130;5.584;2023-06-24T03:28:31;17.10;99.90
11963;DHT22;62678;52.130;5.584;2023-06-24T03:30:58;17.10;99.90
11963;DHT22;62678;52.130;5.584;2023-06-24T03:33:25;17.10;99.90
11963;DHT22;62678;52.130;5.584;2023-06-24T03:35:53;17.10;99.90
11963;DHT22;62678;52.130;5.584;2023-06-24T03:38:20;17.20;99.90
11963;DHT22;62678;52.130;5.584;2023-06-24T03:40:47;17.10;99.90
11963;DHT22;62678;52.130;5.584;2023-06-24T03:43:14;17.10;99.90
11963;DHT22;62678;52.130;5.584;2023-06-24T03:45:43;17.10;99.90
11963;DHT22;62678;52.130;5.584;2023-06-24T03:48:10;17.10;99.90
11963;DHT22;62678;52.130;5.584;2023-06-24T03:50:37;17.10;99.90
11963;DHT22;62678;52.130;5.584;2023-06-24T03:53:04;17.10;99.90
11963;DHT22;62678;52.130;5.584;2023-06-24T03:55:31;17.10;99.90
11963;DHT22;62678;52.130;5.584;2023-06-24T03:57:58;17.10;99.90
11963;DHT22;62678;52.130;5.584;2023-06-24T04:00:25;17.20;99.90
11963;DHT22;62678;52.130;5.584;2023-06-24T04:02:53;17.20;99.90
11963;DHT22;62678;52.130;5.584;2023-06-24T04:05:20;17.30;99.90
11963;DHT22;62678;52.130;5.584;2023-06-24T04:07:48;17.30;99.90
11963;DHT22;62678;52.130;5.584;2023-06-24T04:10:17;17.40;99.90
11963;DHT22;62678;52.130;5.584;2023-06-24T04:12:44;17.40;99.90
11963;DHT22;62678;52.130;5.584;2023-06-24T04:15:11;17.40;99.90
11963;DHT22;62678;52.130;5.584;2023-06-24T04:17:38;17.50;99.90
11963;DHT22;62678;52.130;5.584;2023-06-24T04:20:08;17.50;99.90
11963;DHT22;62678;52.130;5.584;2023-06-24T04:22:36;17.60;99.90
11963;DHT22;62678;52.130;5.584;2023-06-24T04:25:04;17.60;99.90
11963;DHT22;62678;52.130;5.584;2023-06-24T04:27:31;17.70;99.90
11963;DHT22;62678;52.130;5.584;2023-06-24T04:29:58;17.80;99.90
11963;DHT22;62678;52.130;5.584;2023-06-24T04:32:25;17.80;99.90
11963;DHT22;62678;52.130;5.584;2023-06-24T04:34:52;17.80;99.90
11963;DHT22;62678;52.130;5.584;2023-06-24T04:37:20;17.90;99.90
11963;DHT22;62678;52.130;5.584;2023-06-24T04:39:47;17.90;99.90
11963;DHT22;62678;52.130;5.584;2023-06-24T04:42:15;18.00;99.90
11963;DHT22;62678;52.130;5.584;2023-06-24T04:44:42;18.00;99.90
11963;DHT22;62678;52.130;5.584;2023-06-24T04:47:09;18.10;99.90
11963;DHT22;62678;52.130;5.584;2023-06-24T04:49:36;18.20;99.90
11963;DHT22;62678;52.130;5.584;2023-06-24T04:52:03;18.20;99.90
11963;DHT22;62678;52.130;5.584;2023-06-24T04:54:34;18.40;99.90
11963;DHT22;62678;52.130;5.584;2023-06-24T04:57:01;18.40;99.90
11963;DHT22;62678;52.130;5.584;2023-06-24T04:59:28;18.50;99.90
11963;DHT22;62678;52.130;5.584;2023-06-24T05:01:55;18.50;99.90
11963;DHT22;62678;52.130;5.584;2023-06-24T05:04:21;18.60;99.90
11963;DHT22;62678;52.130;5.584;2023-06-24T05:06:48;18.70;99.90
11963;DHT22;62678;52.130;5.584;2023-06-24T05:09:15;18.80;99.90
11963;DHT22;62678;52.130;5.584;2023-06-24T05:11:43;18.80;99.90
11963;DHT22;62678;52.130;5.584;2023-06-24T05:14:11;18.90;99.90
11963;DHT22;62678;52.130;5.584;2023-06-24T05:16:38;19.00;99.90
11963;DHT22;62678;52.130;5.584;2023-06-24T05:19:04;19.10;99.90
11963;DHT22;62678;52.130;5.584;2023-06-24T05:21:31;19.30;99.90
11963;DHT22;62678;52.130;5.584;2023-06-24T05:23:58;19.40;99.90
11963;DHT22;62678;52.130;5.584;2023-06-24T05:26:25;19.40;99.90
11963;DHT22;62678;52.130;5.584;2023-06-24T05:28:54;19.50;99.90
11963;DHT22;62678;52.130;5.584;2023-06-24T05:31:21;19.60;99.90
11963;DHT22;62678;52.130;5.584;2023-06-24T05:33:48;19.50;99.90
11963;DHT22;62678;52.130;5.584;2023-06-24T05:36:15;19.50;99.90
11963;DHT22;62678;52.130;5.584;2023-06-24T05:38:42;19.70;99.90
11963;DHT22;62678;52.130;5.584;2023-06-24T05:41:09;19.70;99.90
11963;DHT22;62678;52.130;5.584;2023-06-24T05:43:36;19.80;99.90
11963;DHT22;62678;52.130;5.584;2023-06-24T05:46:07;19.90;99.90
11963;DHT22;62678;52.130;5.584;2023-06-24T05:48:34;20.00;99.90
11963;DHT22;62678;52.130;5.584;2023-06-24T05:51:00;20.00;99.90
11963;DHT22;62678;52.130;5.584;2023-06-24T05:53:27;19.90;99.90
11963;DHT22;62678;52.130;5.584;2023-06-24T05:55:54;20.00;99.90
11963;DHT22;62678;52.130;5.584;2023-06-24T05:58:21;20.10;99.90
11963;DHT22;62678;52.130;5.584;2023-06-24T06:00:48;20.10;99.90
11963;DHT22;62678;52.130;5.584;2023-06-24T06:03:17;20.20;99.90
11963;DHT22;62678;52.130;5.584;2023-06-24T06:05:44;20.30;99.90
11963;DHT22;62678;52.130;5.584;2023-06-24T06:08:15;20.30;99.90
11963;DHT22;62678;52.130;5.584;2023-06-24T06:10:43;20.40;99.90
11963;DHT22;62678;52.130;5.584;2023-06-24T06:13:10;20.40;99.90
11963;DHT22;62678;52.130;5.584;2023-06-24T06:15:37;20.50;99.90
11963;DHT22;62678;52.130;5.584;2023-06-24T06:18:04;20.60;99.90
11963;DHT22;62678;52.130;5.584;2023-06-24T06:20:35;20.70;99.90
11963;DHT22;62678;52.130;5.584;2023-06-24T06:23:01;20.70;99.90
11963;DHT22;62678;52.130;5.584;2023-06-24T06:25:29;20.90;99.90
11963;DHT22;62678;52.130;5.584;2023-06-24T06:27:55;20.90;99.90
11963;DHT22;62678;52.130;5.584;2023-06-24T06:30:23;20.90;99.90
11963;DHT22;62678;52.130;5.584;2023-06-24T06:32:50;20.90;99.90
11963;DHT22;62678;52.130;5.584;2023-06-24T06:35:17;21.00;99.90
11963;DHT22;62678;52.130;5.584;2023-06-24T06:37:45;21.00;99.90
11963;DHT22;62678;52.130;5.584;2023-06-24T06:40:17;21.10;99.90
11963;DHT22;62678;52.130;5.584;2023-06-24T06:42:44;21.10;99.90
11963;DHT22;62678;52.130;5.584;2023-06-24T06:45:11;21.30;99.90
11963;DHT22;62678;52.130;5.584;2023-06-24T06:47:38;21.40;99.90
11963;DHT22;62678;52.130;5.584;2023-06-24T06:50:06;21.40;99.90
11963;DHT22;62678;52.130;5.584;2023-06-24T06:52:34;21.50;99.90
11963;DHT22;62678;52.130;5.584;2023-06-24T06:55:03;21.50;99.90
11963;DHT22;62678;52.130;5.584;2023-06-24T06:57:30;21.70;99.90
11963;DHT22;62678;52.130;5.584;2023-06-24T06:59:57;21.70;99.90
11963;DHT22;62678;52.130;5.584;2023-06-24T07:02:24;21.70;99.90
11963;DHT22;62678;52.130;5.584;2023-06-24T07:04:51;21.90;99.90
11963;DHT22;62678;52.130;5.584;2023-06-24T07:07:18;22.10;99.90
11963;DHT22;62678;52.130;5.584;2023-06-24T07:09:45;22.10;99.90
11963;DHT22;62678;52.130;5.584;2023-06-24T07:12:15;22.10;99.90
11963;DHT22;62678;52.130;5.584;2023-06-24T07:14:42;22.10;99.90
11963;DHT22;62678;52.130;5.584;2023-06-24T07:17:08;22.20;99.90
11963;DHT22;62678;52.130;5.584;2023-06-24T07:19:35;22.20;99.90
11963;DHT22;62678;52.130;5.584;2023-06-24T07:22:03;22.20;99.90
11963;DHT22;62678;52.130;5.584;2023-06-24T07:24:30;22.30;99.90
11963;DHT22;62678;52.130;5.584;2023-06-24T07:26:57;22.50;99.90
11963;DHT22;62678;52.130;5.584;2023-06-24T07:29:25;22.50;99.90
11963;DHT22;62678;52.130;5.584;2023-06-24T07:31:52;22.70;99.90
11963;DHT22;62678;52.130;5.584;2023-06-24T07:34:19;22.70;99.90
11963;DHT22;62678;52.130;5.584;2023-06-24T07:36:46;22.80;99.90
11963;DHT22;62678;52.130;5.584;2023-06-24T07:39:13;22.80;99.90
11963;DHT22;62678;52.130;5.584;2023-06-24T07:41:41;22.80;99.90
11963;DHT22;62678;52.130;5.584;2023-06-24T07:44:08;22.80;99.90
11963;DHT22;62678;52.130;5.584;2023-06-24T07:46:36;22.90;99.90
11963;DHT22;62678;52.130;5.584;2023-06-24T07:49:03;23.10;99.90
11963;DHT22;62678;52.130;5.584;2023-06-24T07:51:30;23.30;99.90
11963;DHT22;62678;52.130;5.584;2023-06-24T07:53:59;23.30;99.90
11963;DHT22;62678;52.130;5.584;2023-06-24T07:56:26;23.60;99.90
11963;DHT22;62678;52.130;5.584;2023-06-24T07:58:53;23.80;99.90
11963;DHT22;62678;52.130;5.584;2023-06-24T08:01:20;23.80;99.90
11963;DHT22;62678;52.130;5.584;2023-06-24T08:03:48;23.90;99.90
11963;DHT22;62678;52.130;5.584;2023-06-24T08:06:15;24.20;99.90
11963;DHT22;62678;52.130;5.584;2023-06-24T08:08:42;24.30;99.90
11963;DHT22;62678;52.130;5.584;2023-06-24T08:11:11;24.30;99.90
11963;DHT22;62678;52.130;5.584;2023-06-24T08:13:39;24.40;99.90
11963;DHT22;62678;52.130;5.584;2023-06-24T08:16:06;24.40;99.90
11963;DHT22;62678;52.130;5.584;2023-06-24T08:18:32;24.30;99.90
11963;DHT22;62678;52.130;5.584;2023-06-24T08:21:01;24.40;99.90
11963;DHT22;62678;52.130;5.584;2023-06-24T08:23:28;24.30;99.90
11963;DHT22;62678;52.130;5.584;2023-06-24T08:25:55;24.40;99.90
11963;DHT22;62678;52.130;5.584;2023-06-24T08:28:22;24.60;99.90
11963;DHT22;62678;52.130;5.584;2023-06-24T08:30:49;24.80;99.90
11963;DHT22;62678;52.130;5.584;2023-06-24T08:33:16;24.80;99.90
11963;DHT22;62678;52.130;5.584;2023-06-24T08:35:43;25.00;99.90
11963;DHT22;62678;52.130;5.584;2023-06-24T08:38:11;25.20;99.90
11963;DHT22;62678;52.130;5.584;2023-06-24T08:40:39;25.10;99.90
11963;DHT22;62678;52.130;5.584;2023-06-24T08:43:06;25.00;99.90
11963;DHT22;62678;52.130;5.584;2023-06-24T08:45:33;25.10;99.90
11963;DHT22;62678;52.130;5.584;2023-06-24T08:48:00;25.30;99.90
11963;DHT22;62678;52.130;5.584;2023-06-24T08:50:34;25.20;99.90
11963;DHT22;62678;52.130;5.584;2023-06-24T08:53:04;25.30;99.90
11963;DHT22;62678;52.130;5.584;2023-06-24T08:55:39;25.10;99.90
11963;DHT22;62678;52.130;5.584;2023-06-24T08:58:07;25.00;99.90
11963;DHT22;62678;52.130;5.584;2023-06-24T09:00:34;25.00;99.90
11963;DHT22;62678;52.130;5.584;2023-06-24T09:03:01;25.20;99.90
11963;DHT22;62678;52.130;5.584;2023-06-24T09:05:29;25.20;99.90
11963;DHT22;62678;52.130;5.584;2023-06-24T09:07:56;25.40;99.90
11963;DHT22;62678;52.130;5.584;2023-06-24T09:10:30;25.50;99.90
11963;DHT22;62678;52.130;5.584;2023-06-24T09:12:59;25.80;99.90
11963;DHT22;62678;52.130;5.584;2023-06-24T09:15:30;26.00;99.90
11963;DHT22;62678;52.130;5.584;2023-06-24T09:17:57;25.90;99.90
11963;DHT22;62678;52.130;5.584;2023-06-24T09:20:26;25.70;99.90
11963;DHT22;62678;52.130;5.584;2023-06-24T09:22:58;25.50;99.90
11963;DHT22;62678;52.130;5.584;2023-06-24T09:25:25;25.60;99.90
11963;DHT22;62678;52.130;5.584;2023-06-24T09:27:52;25.50;99.90
11963;DHT22;62678;52.130;5.584;2023-06-24T09:30:23;25.60;99.90
11963;DHT22;62678;52.130;5.584;2023-06-24T09:32:51;25.50;99.90
11963;DHT22;62678;52.130;5.584;2023-06-24T09:35:20;25.80;99.90
11963;DHT22;62678;52.130;5.584;2023-06-24T09:37:51;25.90;99.90
11963;DHT22;62678;52.130;5.584;2023-06-24T09:40:18;25.90;99.90
11963;DHT22;62678;52.130;5.584;2023-06-24T09:42:52;25.90;99.90
11963;DHT22;62678;52.130;5.584;2023-06-24T09:45:23;26.10;99.90
11963;DHT22;62678;52.130;5.584;2023-06-24T09:47:50;26.20;99.90
11963;DHT22;62678;52.130;5.584;2023-06-24T09:50:17;26.20;99.90
11963;DHT22;62678;52.130;5.584;2023-06-24T09:52:45;26.20;99.90
11963;DHT22;62678;52.130;5.584;2023-06-24T09:55:17;26.10;99.90
11963;DHT22;62678;52.130;5.584;2023-06-24T09:57:45;26.20;99.90
11963;DHT22;62678;52.130;5.584;2023-06-24T10:00:14;26.10;99.90
11963;DHT22;62678;52.130;5.584;2023-06-24T10:02:44;26.20;99.90
11963;DHT22;62678;52.130;5.584;2023-06-24T10:05:12;26.40;99.90
11963;DHT22;62678;52.130;5.584;2023-06-24T10:07:39;26.30;99.90
11963;DHT22;62678;52.130;5.584;2023-06-24T10:10:07;26.30;99.90
11963;DHT22;62678;52.130;5.584;2023-06-24T10:12:35;26.40;99.90
11963;DHT22;62678;52.130;5.584;2023-06-24T10:15:03;26.60;99.90
11963;DHT22;62678;52.130;5.584;2023-06-24T10:17:30;26.70;99.90
11963;DHT22;62678;52.130;5.584;2023-06-24T10:20:03;26.80;99.90
11963;DHT22;62678;52.130;5.584;2023-06-24T10:22:31;26.70;99.90
11963;DHT22;62678;52.130;5.584;2023-06-24T10:25:00;26.80;99.90
11963;DHT22;62678;52.130;5.584;2023-06-24T10:27:27;26.90;99.90
11963;DHT22;62678;52.130;5.584;2023-06-24T10:30:02;26.80;99.90
11963;DHT22;62678;52.130;5.584;2023-06-24T10:32:39;26.70;99.90
11963;DHT22;62678;52.130;5.584;2023-06-24T10:35:22;26.70;99.90
11963;DHT22;62678;52.130;5.584;2023-06-24T10:37:56;26.90;99.90
11963;DHT22;62678;52.130;5.584;2023-06-24T10:40:37;27.00;99.90
11963;DHT22;62678;52.130;5.584;2023-06-24T10:43:26;27.00;99.90
11963;DHT22;62678;52.130;5.584;2023-06-24T10:45:55;26.90;99.90
11963;DHT22;62678;52.130;5.584;2023-06-24T10:48:23;26.80;99.90
11963;DHT22;62678;52.130;5.584;2023-06-24T10:50:51;26.90;99.90
11963;DHT22;62678;52.130;5.584;2023-06-24T10:53:18;26.90;99.90
11963;DHT22;62678;52.130;5.584;2023-06-24T10:55:45;27.10;99.90
11963;DHT22;62678;52.130;5.584;2023-06-24T10:58:13;27.60;99.90
11963;DHT22;62678;52.130;5.584;2023-06-24T11:00:41;27.80;99.90
11963;DHT22;62678;52.130;5.584;2023-06-24T11:03:10;27.60;99.90
11963;DHT22;62678;52.130;5.584;2023-06-24T11:05:40;27.60;99.90
11963;DHT22;62678;52.130;5.584;2023-06-24T11:08:09;27.40;99.90
11963;DHT22;62678;52.130;5.584;2023-06-24T11:10:43;27.80;99.90
11963;DHT22;62678;52.130;5.584;2023-06-24T11:13:11;27.80;99.90
11963;DHT22;62678;52.130;5.584;2023-06-24T11:15:38;28.00;99.90
11963;DHT22;62678;52.130;5.584;2023-06-24T11:18:08;28.00;99.90
11963;DHT22;62678;52.130;5.584;2023-06-24T11:20:36;28.00;99.90
11963;DHT22;62678;52.130;5.584;2023-06-24T11:23:07;28.10;99.90
11963;DHT22;62678;52.130;5.584;2023-06-24T11:25:40;28.30;99.90
11963;DHT22;62678;52.130;5.584;2023-06-24T11:28:14;28.30;99.90
11963;DHT22;62678;52.130;5.584;2023-06-24T11:30:41;28.30;99.90
11963;DHT22;62678;52.130;5.584;2023-06-24T11:33:08;28.40;99.90
11963;DHT22;62678;52.130;5.584;2023-06-24T11:35:36;28.70;99.90
11963;DHT22;62678;52.130;5.584;2023-06-24T11:38:03;28.90;99.90
11963;DHT22;62678;52.130;5.584;2023-06-24T11:40:31;28.90;99.90
11963;DHT22;62678;52.130;5.584;2023-06-24T11:43:02;28.60;99.90
11963;DHT22;62678;52.130;5.584;2023-06-24T11:45:30;28.70;99.90
11963;DHT22;62678;52.130;5.584;2023-06-24T11:48:02;28.90;99.90
11963;DHT22;62678;52.130;5.584;2023-06-24T11:50:31;29.00;99.90
11963;DHT22;62678;52.130;5.584;2023-06-24T11:52:58;29.20;99.90
11963;DHT22;62678;52.130;5.584;2023-06-24T11:55:26;29.30;99.90
11963;DHT22;62678;52.130;5.584;2023-06-24T11:57:55;29.20;99.90
11963;DHT22;62678;52.130;5.584;2023-06-24T12:00:24;29.60;99.90
11963;DHT22;62678;52.130;5.584;2023-06-24T12:02:56;29.90;99.90
11963;DHT22;62678;52.130;5.584;2023-06-24T12:05:25;30.40;99.90
11963;DHT22;62678;52.130;5.584;2023-06-24T12:07:58;30.40;99.90
11963;DHT22;62678;52.130;5.584;2023-06-24T12:10:26;30.10;99.90
11963;DHT22;62678;52.130;5.584;2023-06-24T12:12:54;29.90;99.90
11963;DHT22;62678;52.130;5.584;2023-06-24T12:15:25;30.00;99.90
11963;DHT22;62678;52.130;5.584;2023-06-24T12:17:52;30.00;99.90
11963;DHT22;62678;52.130;5.584;2023-06-24T12:20:19;29.90;99.90
11963;DHT22;62678;52.130;5.584;2023-06-24T12:22:47;30.10;99.90
11963;DHT22;62678;52.130;5.584;2023-06-24T12:25:15;30.20;99.90
11963;DHT22;62678;52.130;5.584;2023-06-24T12:27:43;30.30;99.90
11963;DHT22;62678;52.130;5.584;2023-06-24T12:30:13;30.30;99.90
11963;DHT22;62678;52.130;5.584;2023-06-24T12:32:43;29.70;99.90
11963;DHT22;62678;52.130;5.584;2023-06-24T12:35:11;29.20;99.90
11963;DHT22;62678;52.130;5.584;2023-06-24T12:37:38;29.00;99.90
11963;DHT22;62678;52.130;5.584;2023-06-24T12:40:05;28.90;99.90
11963;DHT22;62678;52.130;5.584;2023-06-24T12:42:32;28.90;99.90
11963;DHT22;62678;52.130;5.584;2023-06-24T12:45:00;28.80;99.90
11963;DHT22;62678;52.130;5.584;2023-06-24T12:47:27;28.80;99.90
11963;DHT22;62678;52.130;5.584;2023-06-24T12:49:56;29.10;99.90
11963;DHT22;62678;52.130;5.584;2023-06-24T12:52:23;29.20;99.90
11963;DHT22;62678;52.130;5.584;2023-06-24T12:54:50;29.10;99.90
11963;DHT22;62678;52.130;5.584;2023-06-24T12:57:16;29.10;99.90
11963;DHT22;62678;52.130;5.584;2023-06-24T12:59:44;29.50;99.90
11963;DHT22;62678;52.130;5.584;2023-06-24T13:02:11;29.40;99.90
11963;DHT22;62678;52.130;5.584;2023-06-24T13:04:38;29.60;99.90
11963;DHT22;62678;52.130;5.584;2023-06-24T13:07:06;29.70;99.90
11963;DHT22;62678;52.130;5.584;2023-06-24T13:09:35;29.80;99.90
11963;DHT22;62678;52.130;5.584;2023-06-24T13:12:02;29.90;99.90
11963;DHT22;62678;52.130;5.584;2023-06-24T13:14:29;30.10;99.90
11963;DHT22;62678;52.130;5.584;2023-06-24T13:16:56;29.90;99.90
11963;DHT22;62678;52.130;5.584;2023-06-24T13:19:23;29.80;99.90
11963;DHT22;62678;52.130;5.584;2023-06-24T13:21:50;29.90;99.90
11963;DHT22;62678;52.130;5.584;2023-06-24T13:24:19;30.20;99.90
11963;DHT22;62678;52.130;5.584;2023-06-24T13:26:46;29.80;99.90
11963;DHT22;62678;52.130;5.584;2023-06-24T13:29:13;29.80;99.90
11963;DHT22;62678;52.130;5.584;2023-06-24T13:31:40;30.00;99.90
11963;DHT22;62678;52.130;5.584;2023-06-24T13:34:07;30.30;99.90
11963;DHT22;62678;52.130;5.584;2023-06-24T13:36:36;30.70;99.90
11963;DHT22;62678;52.130;5.584;2023-06-24T13:39:04;30.80;99.90
11963;DHT22;62678;52.130;5.584;2023-06-24T13:41:33;30.70;99.90
11963;DHT22;62678;52.130;5.584;2023-06-24T13:44:00;30.60;99.90
11963;DHT22;62678;52.130;5.584;2023-06-24T13:46:28;30.10;99.90
11963;DHT22;62678;52.130;5.584;2023-06-24T13:48:55;30.10;99.90
11963;DHT22;62678;52.130;5.584;2023-06-24T13:51:22;30.10;99.90
11963;DHT22;62678;52.130;5.584;2023-06-24T13:53:51;30.60;99.90
11963;DHT22;62678;52.130;5.584;2023-06-24T13:56:19;31.00;99.90
11963;DHT22;62678;52.130;5.584;2023-06-24T13:58:47;31.40;99.90
11963;DHT22;62678;52.130;5.584;2023-06-24T14:01:15;31.40;99.90
11963;DHT22;62678;52.130;5.584;2023-06-24T14:03:45;31.50;99.90
11963;DHT22;62678;52.130;5.584;2023-06-24T14:06:14;31.40;99.90
11963;DHT22;62678;52.130;5.584;2023-06-24T14:08:42;31.30;99.90
11963;DHT22;62678;52.130;5.584;2023-06-24T14:11:09;31.30;99.90
11963;DHT22;62678;52.130;5.584;2023-06-24T14:13:37;31.00;99.90
11963;DHT22;62678;52.130;5.584;2023-06-24T14:16:05;30.80;99.90
11963;DHT22;62678;52.130;5.584;2023-06-24T14:18:33;31.30;99.90
11963;DHT22;62678;52.130;5.584;2023-06-24T14:21:01;31.10;99.90
11963;DHT22;62678;52.130;5.584;2023-06-24T14:23:28;31.30;99.90
11963;DHT22;62678;52.130;5.584;2023-06-24T14:25:55;31.40;99.90
11963;DHT22;62678;52.130;5.584;2023-06-24T14:28:22;31.30;99.90
11963;DHT22;62678;52.130;5.584;2023-06-24T14:30:49;31.90;99.90
11963;DHT22;62678;52.130;5.584;2023-06-24T14:33:18;31.90;99.90
11963;DHT22;62678;52.130;5.584;2023-06-24T14:35:45;31.90;99.90
11963;DHT22;62678;52.130;5.584;2023-06-24T14:38:12;31.90;99.90
11963;DHT22;62678;52.130;5.584;2023-06-24T14:40:39;32.10;99.90
11963;DHT22;62678;52.130;5.584;2023-06-24T14:43:06;32.80;99.90
11963;DHT22;62678;52.130;5.584;2023-06-24T14:45:33;32.50;99.90
11963;DHT22;62678;52.130;5.584;2023-06-24T14:48:00;32.50;99.90
11963;DHT22;62678;52.130;5.584;2023-06-24T14:50:28;32.40;99.90
11963;DHT22;62678;52.130;5.584;2023-06-24T14:52:55;32.20;99.90
11963;DHT22;62678;52.130;5.584;2023-06-24T14:55:22;31.90;99.90
11963;DHT22;62678;52.130;5.584;2023-06-24T14:57:49;31.70;99.90
11963;DHT22;62678;52.130;5.584;2023-06-24T15:00:17;31.50;99.90
11963;DHT22;62678;52.130;5.584;2023-06-24T15:02:44;31.50;99.90
11963;DHT22;62678;52.130;5.584;2023-06-24T15:05:11;31.40;99.90
11963;DHT22;62678;52.130;5.584;2023-06-24T15:07:40;31.70;99.90
11963;DHT22;62678;52.130;5.584;2023-06-24T15:10:07;31.90;99.90
11963;DHT22;62678;52.130;5.584;2023-06-24T15:12:34;31.80;99.90
11963;DHT22;62678;52.130;5.584;2023-06-24T15:15:01;31.50;99.90
11963;DHT22;62678;52.130;5.584;2023-06-24T15:17:28;31.40;99.90
11963;DHT22;62678;52.130;5.584;2023-06-24T15:19:56;31.40;99.90
11963;DHT22;62678;52.130;5.584;2023-06-24T15:22:23;31.20;99.90
11963;DHT22;62678;52.130;5.584;2023-06-24T15:24:51;31.20;99.90
11963;DHT22;62678;52.130;5.584;2023-06-24T15:27:18;30.50;99.90
11963;DHT22;62678;52.130;5.584;2023-06-24T15:29:45;30.40;99.90
11963;DHT22;62678;52.130;5.584;2023-06-24T15:32:12;30.70;99.90
11963;DHT22;62678;52.130;5.584;2023-06-24T15:34:39;30.50;99.90
11963;DHT22;62678;52.130;5.584;2023-06-24T15:37:06;30.00;99.90